Time;durP1;ratioP1;P1;durP2;ratioP2;P2;SDS_P1;SDS_P2;PMS_P1;PMS_P2;Temp;Humidity;BMP_temperature;BMP_pressure;BME280_temperature;BME280_humidity;BME280_pressure;Samples;Min_cycle;Max_cycle;Signal;HPM_P1;HPM_P2
2021/09/30 00:00:33;;;;;;;1.67;0.98;;;;;;;12.67;100.00;100841.53;4994054;28;20045;-62
2021/09/30 00:02:58;;;;;;;0.70;0.68;;;;;;;12.61;100.00;100842.97;4988599;28;20073;-61
2021/09/30 00:05:25;;;;;;;1.15;0.70;;;;;;;12.56;100.00;100834.41;4993564;28;20475;-58
2021/09/30 00:07:50;;;;;;;0.50;0.50;;;;;;;12.57;100.00;100847.53;4988856;28;20407;-61
2021/09/30 00:10:19;;;;;;;0.60;0.60;;;;;;;12.58;100.00;100841.00;4993490;28;20066;-61
2021/09/30 00:12:51;;;;;;;0.93;0.70;;;;;;;12.54;100.00;100856.34;4989479;28;20561;-60
2021/09/30 00:34:20;;;;;;;1.88;0.75;;;;;;;12.62;100.00;100847.22;4991270;28;20042;-61
2021/09/30 00:47:53;;;;;;;1.40;0.75;;;;;;;12.52;100.00;100882.19;4988779;28;20066;-61
2021/09/30 00:50:26;;;;;;;;;;;;;;;12.52;100.00;100882.94;4984243;28;20035;-61
2021/09/30 01:29:38;;;;;;;1.20;0.90;;;;;;;12.49;100.00;100886.41;4986371;28;20015;-62
2021/09/30 01:58:40;;;;;;;3.13;1.38;;;;;;;12.55;100.00;100920.06;4984922;28;20030;-62
2021/09/30 02:18:54;;;;;;;5.97;0.80;;;;;;;12.44;100.00;100924.53;4986790;28;20042;-61
2021/09/30 02:59:17;;;;;;;1.95;0.80;;;;;;;12.35;100.00;100963.72;4986676;28;20120;-62
2021/09/30 03:01:46;;;;;;;2.15;0.77;;;;;;;12.33;100.00;100971.41;4973390;28;20864;-60
2021/09/30 03:04:13;;;;;;;1.65;1.00;;;;;;;12.36;100.00;100966.03;4972559;28;20049;-62
2021/09/30 03:06:41;;;;;;;1.17;0.88;;;;;;;12.37;100.00;100978.41;4986700;28;20065;-63
2021/09/30 03:09:09;;;;;;;1.60;0.77;;;;;;;12.36;100.00;100982.25;4986743;28;20073;-62
2021/09/30 03:11:37;;;;;;;0.70;0.60;;;;;;;12.34;100.00;100979.13;4989758;28;20041;-63
2021/09/30 03:14:05;;;;;;;0.63;0.40;;;;;;;12.40;100.00;100976.91;4961078;28;20030;-62
2021/09/30 03:19:18;;;;;;;2.80;0.63;;;;;;;12.36;100.00;100989.56;4966434;28;20469;-63
2021/09/30 03:24:28;;;;;;;0.60;0.50;;;;;;;12.38;100.00;100990.00;4963125;28;20844;-62
2021/09/30 03:26:54;;;;;;;1.75;0.65;;;;;;;12.36;100.00;100990.34;4973025;28;20111;-62
2021/09/30 03:29:20;;;;;;;2.78;0.60;;;;;;;12.36;100.00;101008.47;4989695;28;20487;-63
2021/09/30 03:31:48;;;;;;;2.03;0.50;;;;;;;12.36;100.00;101006.56;4970204;28;20509;-62
2021/09/30 03:34:34;;;;;;;4.60;0.65;;;;;;;12.30;100.00;101010.69;4950425;28;20054;-64
2021/09/30 03:37:02;;;;;;;0.90;0.60;;;;;;;12.26;100.00;100998.25;4984981;28;20038;-63
2021/09/30 03:39:29;;;;;;;2.13;0.38;;;;;;;12.34;100.00;101011.53;4951047;28;20030;-62
2021/09/30 03:41:55;;;;;;;3.03;0.50;;;;;;;12.31;100.00;101020.34;4984666;28;20080;-63
2021/09/30 03:44:25;;;;;;;1.00;0.32;;;;;;;12.26;100.00;101014.44;4972927;28;20050;-62
2021/09/30 03:46:52;;;;;;;0.22;0.22;;;;;;;12.32;100.00;101034.63;4972402;28;20034;-62
2021/09/30 03:49:33;;;;;;;2.30;0.45;;;;;;;12.29;100.00;101014.50;4971051;28;20418;-62
2021/09/30 04:00:16;;;;;;;1.55;0.40;;;;;;;12.28;100.00;101041.88;4972026;28;20045;-63
2021/09/30 04:02:42;;;;;;;6.03;0.63;;;;;;;12.27;100.00;101046.50;4958773;28;20023;-63
2021/09/30 04:05:10;;;;;;;1.15;0.40;;;;;;;12.30;100.00;101043.09;4956078;28;20388;-64
2021/09/30 04:07:35;;;;;;;2.05;0.50;;;;;;;12.25;100.00;101040.66;4975838;28;20114;-62
2021/09/30 04:10:03;;;;;;;0.30;0.30;;;;;;;12.33;100.00;101045.06;4961910;28;20030;-64
2021/09/30 04:12:29;;;;;;;1.25;0.38;;;;;;;12.28;100.00;101034.56;4975048;28;20045;-63
2021/09/30 04:14:55;;;;;;;0.30;0.30;;;;;;;12.26;100.00;101053.03;4971921;28;20034;-64
2021/09/30 04:17:20;;;;;;;1.02;0.30;;;;;;;12.25;100.00;101046.06;4989067;28;20125;-64
2021/09/30 04:19:46;;;;;;;4.25;0.22;;;;;;;12.31;100.00;101055.44;4990776;28;20490;-64
2021/09/30 04:22:14;;;;;;;1.30;0.40;;;;;;;12.34;100.00;101054.75;4963453;28;20034;-64
2021/09/30 04:24:41;;;;;;;0.40;0.30;;;;;;;12.33;100.00;101063.22;4960545;28;20599;-64
2021/09/30 04:27:07;;;;;;;1.15;0.57;;;;;;;12.32;100.00;101057.03;4955355;28;20031;-64
2021/09/30 04:29:33;;;;;;;1.85;0.50;;;;;;;12.27;100.00;101062.69;4962824;28;20054;-64
2021/09/30 04:31:58;;;;;;;1.67;0.40;;;;;;;12.31;100.00;101065.50;4967847;28;20035;-65
2021/09/30 04:34:25;;;;;;;0.28;0.28;;;;;;;12.26;100.00;101068.47;4972262;28;20019;-64
2021/09/30 04:36:51;;;;;;;1.42;0.45;;;;;;;12.31;100.00;101068.94;4956796;28;20039;-64
2021/09/30 04:39:17;;;;;;;1.20;0.30;;;;;;;12.27;100.00;101070.78;4969930;28;20042;-64
2021/09/30 04:41:44;;;;;;;4.70;0.50;;;;;;;12.27;100.00;101084.28;4973863;28;20038;-62
2021/09/30 04:44:12;;;;;;;0.85;0.40;;;;;;;12.26;100.00;101081.97;4975388;28;20121;-64
2021/09/30 04:46:39;;;;;;;1.17;0.40;;;;;;;12.20;100.00;101081.47;4959164;28;20522;-64
2021/09/30 04:49:24;;;;;;;1.65;0.65;;;;;;;12.19;99.89;101085.31;4984950;28;20495;-64
2021/09/30 04:51:50;;;;;;;3.63;0.50;;;;;;;12.18;100.00;101093.75;4973072;28;20054;-64
2021/09/30 04:54:18;;;;;;;0.88;0.40;;;;;;;12.17;100.00;101098.38;4971888;28;20128;-63
2021/09/30 04:56:43;;;;;;;0.90;0.60;;;;;;;12.14;100.00;101093.69;4990466;28;20054;-64
2021/09/30 04:59:18;;;;;;;2.45;0.40;;;;;;;12.13;100.00;101102.94;4986237;28;20149;-62
2021/09/30 05:01:54;;;;;;;2.85;0.50;;;;;;;12.10;100.00;101098.22;4966093;28;20038;-64
2021/09/30 05:04:20;;;;;;;1.67;0.50;;;;;;;12.16;99.80;101107.59;4974848;28;20112;-64
2021/09/30 05:06:47;;;;;;;2.33;0.50;;;;;;;12.13;100.00;101102.94;4968828;28;20027;-63
2021/09/30 05:09:13;;;;;;;2.10;0.45;;;;;;;12.14;100.00;101104.47;4973766;28;20033;-64
2021/09/30 05:11:47;;;;;;;1.23;0.55;;;;;;;12.13;100.00;101116.44;4991702;28;20092;-63
2021/09/30 05:14:12;;;;;;;1.48;0.55;;;;;;;12.12;100.00;101106.75;4971277;28;20043;-65
2021/09/30 05:16:38;;;;;;;3.78;1.05;;;;;;;12.13;100.00;101111.03;4970437;28;20117;-63
2021/09/30 05:19:07;;;;;;;5.63;0.88;;;;;;;12.10;100.00;101116.34;4990972;28;20117;-63
2021/09/30 05:21:33;;;;;;;2.58;0.43;;;;;;;12.10;100.00;101119.81;4972831;28;20031;-64
2021/09/30 05:24:00;;;;;;;0.88;0.40;;;;;;;12.03;100.00;101122.38;4975136;28;20038;-64
2021/09/30 05:26:29;;;;;;;0.77;0.35;;;;;;;12.06;100.00;101118.19;4969125;28;20022;-63
2021/09/30 05:28:57;;;;;;;1.92;0.60;;;;;;;12.00;100.00;101131.16;4969350;28;20042;-64
2021/09/30 05:31:23;;;;;;;1.70;0.68;;;;;;;11.97;100.00;101129.19;4972527;28;20080;-65
2021/09/30 05:34:06;;;;;;;1.13;0.88;;;;;;;12.00;100.00;101135.78;4987855;28;20050;-64
2021/09/30 05:36:33;;;;;;;1.13;0.70;;;;;;;11.99;100.00;101142.31;4985294;28;20074;-63
2021/09/30 05:38:59;;;;;;;2.55;0.40;;;;;;;11.99;100.00;101137.69;4968439;28;20499;-64
2021/09/30 05:41:25;;;;;;;1.17;0.60;;;;;;;12.00;100.00;101123.06;4966538;28;20038;-62
2021/09/30 05:43:54;;;;;;;1.25;0.60;;;;;;;12.00;100.00;101133.84;4967911;28;20076;-64
2021/09/30 05:46:30;;;;;;;0.47;0.40;;;;;;;12.02;100.00;101139.69;4966261;28;20038;-63
2021/09/30 05:48:56;;;;;;;0.52;0.52;;;;;;;12.04;99.62;101131.25;4970857;28;20684;-63
2021/09/30 05:51:22;;;;;;;1.95;0.70;;;;;;;12.03;99.42;101135.06;4963737;28;20030;-64
2021/09/30 05:54:10;;;;;;;1.88;0.70;;;;;;;11.98;100.00;101149.63;4971450;28;20046;-63
2021/09/30 05:56:46;;;;;;;0.77;0.35;;;;;;;12.01;99.21;101143.53;4945259;28;20038;-65
2021/09/30 05:59:16;;;;;;;0.88;0.57;;;;;;;12.07;99.54;101144.03;4962549;28;20051;-63
2021/09/30 06:12:22;;;;;;;2.03;0.50;;;;;;;12.07;98.71;101165.63;4972640;28;20046;-64
2021/09/30 06:14:48;;;;;;;0.40;0.40;;;;;;;12.06;99.11;101167.53;4983722;28;20045;-64
2021/09/30 06:17:15;;;;;;;1.60;0.40;;;;;;;12.03;98.84;101178.28;4967328;28;20061;-63
2021/09/30 06:19:47;;;;;;;0.40;0.40;;;;;;;12.13;98.49;101197.41;4970101;28;20026;-64
2021/09/30 06:22:14;;;;;;;1.35;0.38;;;;;;;12.15;97.94;101188.97;4970502;28;20046;-63
2021/09/30 06:24:40;;;;;;;0.32;0.32;;;;;;;12.09;98.23;101179.56;4971522;28;20038;-64
2021/09/30 06:27:07;;;;;;;3.30;0.57;;;;;;;12.08;98.51;101186.88;4967829;28;20438;-63
2021/09/30 06:29:33;;;;;;;1.45;0.40;;;;;;;12.10;97.67;101187.31;4970009;28;20038;-64
2021/09/30 06:32:03;;;;;;;3.42;0.52;;;;;;;12.02;99.07;101201.00;4966231;28;20042;-64
2021/09/30 06:34:57;;;;;;;1.63;0.40;;;;;;;12.04;98.32;101210.31;4984103;28;20495;-63
2021/09/30 06:37:34;;;;;;;1.23;0.47;;;;;;;12.01;99.13;101215.63;4985602;28;20521;-63
2021/09/30 06:40:00;;;;;;;2.83;0.45;;;;;;;12.05;98.73;101198.38;4969494;28;20056;-63
2021/09/30 06:42:26;;;;;;;3.70;0.50;;;;;;;12.09;98.98;101214.66;4984541;28;20026;-64
2021/09/30 06:44:52;;;;;;;0.47;0.40;;;;;;;12.10;99.32;101217.00;4988159;28;20045;-64
2021/09/30 06:47:51;;;;;;;1.00;0.55;;;;;;;12.14;98.77;101234.06;4970586;28;20037;-64
2021/09/30 06:50:26;;;;;;;0.50;0.40;;;;;;;12.18;99.08;101231.44;4962159;28;20035;-63
2021/09/30 06:53:22;;;;;;;1.60;0.90;;;;;;;12.22;98.33;101229.63;4974843;28;20031;-61
2021/09/30 06:56:06;;;;;;;2.83;0.40;;;;;;;12.23;98.48;101242.00;4989080;28;20041;-63
2021/09/30 06:58:51;;;;;;;4.57;0.88;;;;;;;12.28;98.66;101252.53;4988635;28;20049;-62
2021/09/30 07:01:37;;;;;;;4.97;0.68;;;;;;;12.42;97.67;101250.16;4981637;28;20049;-63
2021/09/30 07:04:29;;;;;;;2.25;0.40;;;;;;;12.54;97.66;101255.44;4985309;28;20042;-63
2021/09/30 07:07:13;;;;;;;2.72;0.40;;;;;;;12.64;97.91;101252.16;4984915;28;20413;-63
2021/09/30 07:09:39;;;;;;;2.75;0.45;;;;;;;12.64;96.63;101252.97;4986620;28;20038;-63
2021/09/30 07:12:05;;;;;;;6.65;0.52;;;;;;;12.68;96.47;101261.13;4985800;28;20061;-64
2021/09/30 07:14:30;;;;;;;2.15;0.40;;;;;;;12.75;96.51;101260.50;4989053;28;20038;-64
2021/09/30 07:16:56;;;;;;;2.33;0.40;;;;;;;12.77;96.48;101255.53;4978610;28;20117;-63
2021/09/30 07:19:22;;;;;;;4.32;0.63;;;;;;;12.80;96.69;101265.63;4984360;28;20038;-63
2021/09/30 07:21:48;;;;;;;0.52;0.40;;;;;;;12.79;97.30;101262.16;4987369;28;20514;-63
2021/09/30 07:24:13;;;;;;;0.60;0.35;;;;;;;12.88;96.44;101278.16;4984385;28;20035;-63
2021/09/30 07:26:40;;;;;;;4.18;1.00;;;;;;;12.94;96.47;101274.03;4984797;28;20109;-60
2021/09/30 07:29:05;;;;;;;1.60;0.60;;;;;;;13.00;94.85;101284.22;4982514;28;20960;-64
2021/09/30 07:31:31;;;;;;;0.95;0.38;;;;;;;12.94;94.58;101280.25;4983564;28;20038;-64
2021/09/30 07:33:56;;;;;;;1.17;0.30;;;;;;;12.83;95.79;101273.03;4985246;28;20061;-63
2021/09/30 07:36:22;;;;;;;1.10;0.40;;;;;;;12.80;95.60;101279.16;4988797;28;20049;-62
2021/09/30 07:38:48;;;;;;;3.25;0.50;;;;;;;12.76;95.95;101281.00;4983989;28;20053;-64
2021/09/30 07:41:14;;;;;;;0.85;0.40;;;;;;;12.83;95.86;101273.84;4987790;28;20034;-64
2021/09/30 07:43:40;;;;;;;2.28;0.52;;;;;;;12.95;95.75;101275.63;4985823;28;20035;-64
2021/09/30 07:46:06;;;;;;;0.20;0.20;;;;;;;13.06;95.36;101280.16;4991172;28;20125;-63
2021/09/30 07:48:31;;;;;;;0.30;0.30;;;;;;;13.16;94.61;101284.19;4985458;28;20049;-64
2021/09/30 07:50:57;;;;;;;1.75;0.30;;;;;;;13.21;94.33;101294.72;4985569;28;20030;-63
2021/09/30 07:53:23;;;;;;;0.30;0.30;;;;;;;13.31;94.17;101307.69;4990990;28;20069;-63
2021/09/30 07:55:48;;;;;;;0.88;0.38;;;;;;;13.49;92.80;101306.09;4990693;28;20107;-63
2021/09/30 07:58:14;;;;;;;0.80;0.40;;;;;;;13.72;92.63;101304.22;4984994;28;20034;-63
2021/09/30 08:00:41;;;;;;;1.30;0.60;;;;;;;13.98;91.43;101319.75;4982369;28;20056;-64
2021/09/30 08:03:07;;;;;;;1.20;0.30;;;;;;;14.28;91.31;101318.75;4981068;28;20031;-64
2021/09/30 08:05:36;;;;;;;0.50;0.30;;;;;;;14.46;89.58;101327.13;4977092;28;20150;-64
2021/09/30 08:08:03;;;;;;;1.00;0.50;;;;;;;14.54;88.31;101317.22;4977735;28;20038;-64
2021/09/30 08:10:29;;;;;;;3.90;0.45;;;;;;;14.60;88.44;101332.78;4978214;28;20173;-64
2021/09/30 08:12:55;;;;;;;1.15;0.30;;;;;;;14.62;87.21;101335.13;4978440;28;20118;-64
2021/09/30 08:15:20;;;;;;;0.30;0.30;;;;;;;14.59;87.65;101333.16;4979568;28;20033;-64
2021/09/30 08:17:46;;;;;;;0.60;0.45;;;;;;;14.69;87.62;101337.97;4978618;28;20042;-64
2021/09/30 08:20:12;;;;;;;1.90;0.50;;;;;;;14.85;85.83;101342.06;4983899;28;20031;-63
2021/09/30 08:22:37;;;;;;;1.73;0.40;;;;;;;14.97;85.15;101346.47;4983415;28;20112;-65
2021/09/30 08:25:24;;;;;;;1.70;0.43;;;;;;;15.10;84.71;101343.19;4984909;28;20077;-64
2021/09/30 08:27:50;;;;;;;2.95;0.22;;;;;;;15.33;83.68;101353.91;4986954;22;20068;-67
2021/09/30 08:30:15;;;;;;;5.90;0.75;;;;;;;15.50;82.22;101350.69;5032129;28;20045;-67
2021/09/30 08:32:41;;;;;;;2.03;0.40;;;;;;;15.62;82.21;101358.56;5040180;28;20059;-66
2021/09/30 08:35:07;;;;;;;0.52;0.40;;;;;;;15.65;81.07;101341.53;5039007;28;20449;-67
2021/09/30 08:37:33;;;;;;;1.48;0.50;;;;;;;15.75;81.57;101346.31;5048270;28;20021;-66
2021/09/30 08:39:59;;;;;;;3.03;0.30;;;;;;;15.89;80.29;101354.59;5033884;28;20040;-66
2021/09/30 08:42:26;;;;;;;1.00;0.30;;;;;;;16.01;79.97;101357.03;5024987;28;20025;-68
2021/09/30 08:44:52;;;;;;;2.40;0.30;;;;;;;15.98;78.62;101359.72;5023554;28;20509;-68
2021/09/30 08:47:21;;;;;;;0.80;0.32;;;;;;;15.89;79.40;101368.16;5009273;28;20033;-66
2021/09/30 08:49:46;;;;;;;0.95;0.40;;;;;;;15.95;80.51;101365.91;5030555;28;20033;-66
2021/09/30 08:52:12;;;;;;;3.38;0.35;;;;;;;16.12;79.57;101371.50;5029584;28;20029;-68
2021/09/30 08:54:37;;;;;;;1.88;0.43;;;;;;;16.43;79.66;101372.97;5030946;28;20045;-67
2021/09/30 08:57:05;;;;;;;0.20;0.20;;;;;;;16.62;78.44;101372.75;5036600;28;20029;-66
2021/09/30 08:59:32;;;;;;;0.40;0.28;;;;;;;16.79;77.60;101374.81;5034567;28;20041;-67
2021/09/30 09:02:12;;;;;;;0.15;0.15;;;;;;;17.06;77.56;101383.50;5041850;28;20041;-67
2021/09/30 09:04:52;;;;;;;3.17;0.70;;;;;;;17.22;75.36;101372.31;5028590;28;20044;-67
2021/09/30 09:07:22;;;;;;;0.40;0.20;;;;;;;17.50;75.38;101389.59;5038873;28;20027;-67
2021/09/30 09:09:49;;;;;;;0.20;0.20;;;;;;;17.67;73.60;101377.97;5044675;28;20029;-67
2021/09/30 09:12:17;;;;;;;0.82;0.30;;;;;;;17.85;72.64;101378.81;5026410;28;20019;-67
2021/09/30 09:14:43;;;;;;;0.30;0.30;;;;;;;18.09;71.23;101390.94;5044927;28;20095;-67
2021/09/30 09:17:16;;;;;;;1.02;0.32;;;;;;;18.24;67.96;101394.44;5037545;28;20040;-66
2021/09/30 09:19:54;;;;;;;0.68;0.30;;;;;;;18.33;68.05;101386.69;5034779;28;20032;-67
2021/09/30 09:22:21;;;;;;;0.20;0.20;;;;;;;18.61;68.98;101397.59;5047247;28;20043;-66
2021/09/30 09:25:05;;;;;;;3.28;0.30;;;;;;;18.60;67.13;101393.34;5032222;28;20049;-68
2021/09/30 09:27:50;;;;;;;1.25;0.50;;;;;;;18.20;68.48;101393.66;5017628;28;20478;-66
2021/09/30 09:30:37;;;;;;;1.33;0.30;;;;;;;17.99;68.85;101395.19;5010401;28;20481;-67
2021/09/30 09:33:23;;;;;;;4.03;0.35;;;;;;;17.74;70.56;101408.00;5024709;28;20052;-66
2021/09/30 09:36:09;;;;;;;3.47;0.40;;;;;;;17.39;70.03;101396.91;5027981;28;20077;-67
2021/09/30 09:38:43;;;;;;;1.63;0.40;;;;;;;17.08;71.88;101411.13;5034491;28;20057;-67
2021/09/30 09:41:19;;;;;;;0.80;0.28;;;;;;;16.94;73.70;101406.38;5028734;28;20037;-67
2021/09/30 09:43:45;;;;;;;0.82;0.43;;;;;;;16.85;73.89;101411.38;5034270;28;20037;-67
2021/09/30 09:46:14;;;;;;;0.30;0.25;;;;;;;16.78;74.09;101416.00;5027707;28;20025;-67
2021/09/30 09:48:52;;;;;;;2.88;0.30;;;;;;;16.69;75.16;101412.81;5044190;28;20099;-68
2021/09/30 09:51:18;;;;;;;0.47;0.40;;;;;;;16.66;73.78;101427.16;5023048;28;20116;-67
2021/09/30 09:53:43;;;;;;;1.83;0.60;;;;;;;16.68;74.19;101420.19;5023524;28;20116;-67
2021/09/30 09:56:12;;;;;;;1.50;0.28;;;;;;;16.75;74.45;101411.28;5037881;28;20405;-67
2021/09/30 09:58:49;;;;;;;0.98;0.45;;;;;;;16.83;74.46;101410.19;5028146;28;20045;-67
2021/09/30 10:01:16;;;;;;;0.32;0.32;;;;;;;16.82;73.64;101408.66;5033350;28;20553;-67
2021/09/30 10:03:58;;;;;;;1.75;0.55;;;;;;;16.73;74.44;101400.81;5042455;28;20045;-67
2021/09/30 10:06:24;;;;;;;2.00;0.40;;;;;;;16.70;75.56;101419.81;5039239;28;20071;-67
2021/09/30 10:08:49;;;;;;;2.13;0.40;;;;;;;16.76;75.21;101410.91;5038023;28;20808;-67
2021/09/30 10:11:16;;;;;;;2.60;0.77;;;;;;;16.82;75.95;101414.84;5034325;28;20036;-67
2021/09/30 10:13:41;;;;;;;2.75;0.47;;;;;;;16.98;75.88;101422.72;5036097;28;20034;-67
2021/09/30 10:16:07;;;;;;;1.38;0.40;;;;;;;17.07;75.07;101417.75;5024137;28;20091;-67
2021/09/30 10:18:32;;;;;;;3.92;0.40;;;;;;;17.15;75.37;101422.84;5032841;28;20628;-67
2021/09/30 10:20:58;;;;;;;2.80;0.52;;;;;;;17.35;74.96;101426.06;5036412;28;20146;-68
2021/09/30 10:23:31;;;;;;;0.95;0.43;;;;;;;17.42;73.79;101425.34;5032548;28;20037;-67
2021/09/30 10:26:06;;;;;;;4.82;0.68;;;;;;;17.37;73.85;101431.91;5029155;28;20038;-67
2021/09/30 10:28:42;;;;;;;7.30;0.60;;;;;;;17.25;73.00;101436.91;5028357;28;20037;-67
2021/09/30 10:31:28;;;;;;;2.00;0.60;;;;;;;17.09;74.36;101429.03;5027274;28;20043;-67
2021/09/30 10:33:56;;;;;;;1.15;0.70;;;;;;;17.18;74.40;101426.75;5029296;28;20037;-67
2021/09/30 10:36:45;;;;;;;0.82;0.38;;;;;;;17.21;74.29;101436.88;5017770;28;20044;-67
2021/09/30 10:39:23;;;;;;;1.30;0.50;;;;;;;17.31;74.57;101441.59;5023441;28;20051;-67
2021/09/30 10:42:00;;;;;;;2.45;0.85;;;;;;;17.30;73.90;101433.81;5035176;28;20021;-67
2021/09/30 10:44:33;;;;;;;1.08;0.60;;;;;;;17.41;73.56;101446.34;5038571;28;20049;-67
2021/09/30 10:47:01;;;;;;;1.38;0.40;;;;;;;17.57;72.69;101441.41;5033711;28;20466;-66
2021/09/30 10:49:53;;;;;;;1.20;0.63;;;;;;;17.69;72.22;101443.00;5031900;28;20029;-67
2021/09/30 10:52:20;;;;;;;1.00;0.30;;;;;;;17.73;69.28;101451.97;5007870;28;20070;-67
2021/09/30 10:55:05;;;;;;;1.75;0.43;;;;;;;17.81;70.36;101443.44;5028814;28;20835;-68
2021/09/30 10:57:45;;;;;;;1.58;0.40;;;;;;;17.90;70.14;101443.84;5026919;28;20044;-67
2021/09/30 11:00:16;;;;;;;3.15;0.38;;;;;;;17.94;69.48;101441.91;5033049;28;20065;-67
2021/09/30 11:03:10;;;;;;;1.60;0.50;;;;;;;17.86;69.40;101451.25;5034108;28;20385;-67
2021/09/30 11:05:41;;;;;;;0.65;0.30;;;;;;;17.97;69.95;101451.25;5042855;28;20102;-67
2021/09/30 11:08:27;;;;;;;3.47;0.93;;;;;;;17.96;70.43;101457.91;5034250;28;20037;-67
2021/09/30 11:11:01;;;;;;;3.08;0.30;;;;;;;18.13;70.48;101450.91;5033973;28;20052;-67
2021/09/30 11:13:37;;;;;;;0.25;0.17;;;;;;;18.16;67.65;101439.22;5038715;28;20451;-67
2021/09/30 11:16:20;;;;;;;3.72;0.57;;;;;;;17.98;66.68;101453.59;4997090;28;20045;-67
2021/09/30 11:18:50;;;;;;;1.40;0.30;;;;;;;17.85;66.96;101467.97;5037349;28;20571;-67
2021/09/30 11:21:31;;;;;;;1.33;0.38;;;;;;;17.66;67.96;101446.47;5027522;28;20037;-67
2021/09/30 11:24:06;;;;;;;1.92;0.20;;;;;;;17.67;67.38;101467.13;5032521;28;20074;-67
2021/09/30 11:26:55;;;;;;;3.28;0.30;;;;;;;17.70;67.19;101467.13;5032477;28;20033;-67
2021/09/30 11:29:21;;;;;;;2.33;0.20;;;;;;;17.85;66.21;101463.31;5023338;28;20698;-67
2021/09/30 11:31:59;;;;;;;0.63;0.40;;;;;;;17.92;68.08;101473.47;5026078;28;20036;-66
2021/09/30 11:34:27;;;;;;;1.70;0.25;;;;;;;18.14;67.64;101475.06;5006143;28;20069;-68
2021/09/30 11:36:55;;;;;;;8.63;0.77;;;;;;;18.44;66.59;101469.31;5025170;28;20055;-67
2021/09/30 11:39:21;;;;;;;0.50;0.15;;;;;;;18.58;65.97;101475.56;5025959;28;20037;-67
2021/09/30 11:41:48;;;;;;;2.42;0.32;;;;;;;18.54;63.33;101477.50;5034026;28;20037;-67
2021/09/30 11:44:20;;;;;;;0.52;0.28;;;;;;;18.42;61.37;101469.72;5034569;28;20025;-67
2021/09/30 11:46:54;;;;;;;4.55;1.08;;;;;;;18.40;59.65;101469.28;5034168;28;20086;-67
2021/09/30 11:49:19;;;;;;;0.65;0.13;;;;;;;18.47;60.25;101477.50;5025546;28;20041;-66
2021/09/30 11:51:47;;;;;;;0.57;0.38;;;;;;;18.53;59.81;101472.44;5024545;28;20092;-67
2021/09/30 11:54:15;;;;;;;1.27;0.20;;;;;;;18.47;59.44;101474.78;5032128;28;20032;-67
2021/09/30 11:56:46;;;;;;;0.63;0.10;;;;;;;18.45;60.63;101479.06;5034345;28;20049;-67
2021/09/30 11:59:13;;;;;;;2.47;0.20;;;;;;;18.37;nan;101480.22;5029256;28;20079;-66
2021/09/30 12:01:42;;;;;;;1.48;0.25;;;;;;;18.26;59.95;101469.25;5029754;28;20086;-67
2021/09/30 12:04:08;;;;;;;1.20;0.30;;;;;;;18.24;59.90;101487.97;5019638;28;20061;-67
2021/09/30 12:06:47;;;;;;;3.60;0.22;;;;;;;18.21;59.09;101496.13;5038327;28;20063;-67
2021/09/30 12:09:15;;;;;;;2.00;0.43;;;;;;;18.32;58.51;101484.09;5035219;28;20034;-67
2021/09/30 12:11:52;;;;;;;1.27;0.30;;;;;;;18.29;57.47;101495.00;5039194;28;20404;-66
2021/09/30 12:14:19;;;;;;;2.65;0.47;;;;;;;18.21;57.94;101496.13;5035402;28;20033;-67
2021/09/30 12:17:02;;;;;;;1.08;0.30;;;;;;;18.30;59.28;101486.41;5040288;28;20674;-66
2021/09/30 12:19:34;;;;;;;0.70;0.30;;;;;;;18.42;56.67;101493.47;5035652;28;20021;-67
2021/09/30 12:22:00;;;;;;;;;;;;;;;18.53;57.38;101489.59;5028714;28;20160;-67
2021/09/30 12:24:28;;;;;;;1.05;0.40;;;;;;;18.60;55.59;101481.41;5017498;28;19955;-66
2021/09/30 12:26:55;;;;;;;4.00;0.40;;;;;;;18.68;56.22;101499.38;5032213;28;20040;-66
2021/09/30 12:29:21;;;;;;;1.23;0.20;;;;;;;18.69;54.92;101500.16;5027387;28;20034;-67
2021/09/30 12:32:05;;;;;;;1.52;0.20;;;;;;;18.80;56.03;101503.66;5037330;28;20513;-66
2021/09/30 12:34:30;;;;;;;0.90;0.15;;;;;;;18.76;53.69;101503.66;5038684;28;20061;-66
2021/09/30 12:36:56;;;;;;;1.55;0.30;;;;;;;18.84;53.69;101509.91;5034716;28;20155;-67
2021/09/30 12:39:27;;;;;;;0.47;0.20;;;;;;;18.98;54.08;101503.66;5044232;28;20037;-66
2021/09/30 12:41:53;;;;;;;1.92;0.20;;;;;;;19.06;53.25;101494.31;5031270;28;20037;-67
2021/09/30 12:44:20;;;;;;;0.52;0.22;;;;;;;19.09;52.36;101509.88;5031275;28;20040;-67
2021/09/30 12:46:51;;;;;;;0.40;0.30;;;;;;;19.16;52.60;101498.97;5042898;28;20082;-67
2021/09/30 12:49:19;;;;;;;0.50;0.30;;;;;;;19.31;53.73;101511.44;5033419;28;20051;-67
2021/09/30 12:51:45;;;;;;;0.65;0.22;;;;;;;19.37;52.93;101498.97;5036174;28;20037;-67
2021/09/30 12:54:11;;;;;;;2.45;0.35;;;;;;;19.32;52.62;101502.88;5024443;28;20436;-67
2021/09/30 12:56:37;;;;;;;2.08;0.30;;;;;;;19.31;51.97;101508.72;5026320;28;20059;-66
2021/09/30 12:59:15;;;;;;;1.23;0.30;;;;;;;19.27;51.63;101500.53;5025973;28;20040;-67
2021/09/30 13:01:42;;;;;;;0.55;0.20;;;;;;;19.38;53.25;101506.78;5031526;28;20409;-67
2021/09/30 13:04:25;;;;;;;3.47;0.30;;;;;;;19.40;52.59;101509.09;5031813;28;20545;-67
2021/09/30 13:06:56;;;;;;;2.38;0.40;;;;;;;19.46;52.56;101502.84;5026869;28;20033;-67
2021/09/30 13:09:23;;;;;;;0.70;0.30;;;;;;;19.54;52.07;101507.13;5036188;28;20032;-67
2021/09/30 13:11:54;;;;;;;0.80;0.25;;;;;;;19.56;51.97;101507.53;5009812;28;20482;-67
2021/09/30 13:14:36;;;;;;;2.67;0.25;;;;;;;19.52;52.30;101498.56;5029537;28;20041;-67
2021/09/30 13:17:19;;;;;;;0.80;0.38;;;;;;;19.44;51.03;101510.66;5028615;28;20041;-66
2021/09/30 13:19:44;;;;;;;1.00;0.40;;;;;;;19.43;51.32;101498.19;5026863;28;20044;-67
2021/09/30 13:22:13;;;;;;;2.00;0.20;;;;;;;19.44;50.90;101494.28;5037751;28;20029;-67
2021/09/30 13:24:40;;;;;;;1.70;0.30;;;;;;;19.43;50.16;101491.94;5027144;28;20076;-66
2021/09/30 13:27:09;;;;;;;0.70;0.20;;;;;;;19.30;50.59;101498.97;5029680;28;20033;-66
2021/09/30 13:29:35;;;;;;;3.63;0.38;;;;;;;19.14;51.12;101493.13;5031765;28;20152;-67
2021/09/30 13:32:01;;;;;;;0.85;0.20;;;;;;;19.00;52.33;101498.59;5030353;28;20115;-66
2021/09/30 13:34:26;;;;;;;0.85;0.13;;;;;;;18.85;53.33;101492.38;5034823;28;20033;-67
2021/09/30 13:36:52;;;;;;;0.73;0.35;;;;;;;18.77;53.32;101499.78;5028283;28;20033;-67
2021/09/30 13:39:18;;;;;;;1.25;0.40;;;;;;;18.75;53.19;101499.38;5024718;28;20398;-66
2021/09/30 13:41:44;;;;;;;0.52;0.30;;;;;;;18.88;53.52;101497.03;5030890;28;20140;-66
2021/09/30 13:44:10;;;;;;;1.15;0.10;;;;;;;18.96;53.84;101495.88;5037673;28;20113;-67
2021/09/30 13:46:36;;;;;;;2.28;0.30;;;;;;;18.86;53.32;101483.78;5030934;28;20064;-67
2021/09/30 13:49:02;;;;;;;0.70;0.20;;;;;;;18.83;52.83;101498.19;5022999;28;20063;-67
2021/09/30 13:51:29;;;;;;;0.57;0.20;;;;;;;18.82;52.43;101488.47;5037139;28;20035;-67
2021/09/30 13:53:55;;;;;;;2.83;0.50;;;;;;;18.80;52.53;101492.75;5028740;28;20095;-66
2021/09/30 13:56:21;;;;;;;1.08;0.20;;;;;;;18.81;52.58;101495.06;5019143;28;20033;-67
2021/09/30 13:58:46;;;;;;;1.40;0.20;;;;;;;18.74;53.23;101488.84;5033677;28;20047;-67
2021/09/30 14:01:12;;;;;;;0.60;0.28;;;;;;;18.68;53.41;101491.16;5031674;28;20120;-67
2021/09/30 14:03:37;;;;;;;0.70;0.57;;;;;;;18.64;53.03;101489.63;5028315;28;20029;-67
2021/09/30 14:06:03;;;;;;;2.17;0.30;;;;;;;18.66;52.77;101481.84;5026334;28;20049;-67
2021/09/30 14:08:30;;;;;;;1.30;0.30;;;;;;;18.65;53.65;101491.97;5031841;28;20034;-67
2021/09/30 14:10:56;;;;;;;1.35;0.35;;;;;;;18.71;54.19;101484.16;5039060;28;20064;-67
2021/09/30 14:13:22;;;;;;;2.08;0.60;;;;;;;18.81;53.25;101484.16;5032926;28;20627;-67
2021/09/30 14:15:48;;;;;;;2.25;0.32;;;;;;;18.87;53.34;101477.13;5031256;28;20049;-67
2021/09/30 14:18:14;;;;;;;1.38;0.47;;;;;;;18.88;53.19;101472.47;5030646;28;20029;-67
2021/09/30 14:20:39;;;;;;;4.57;0.55;;;;;;;18.95;53.84;101471.69;5033259;28;20041;-67
2021/09/30 14:23:05;;;;;;;1.65;0.28;;;;;;;18.81;53.62;101472.47;5038641;28;20033;-67
2021/09/30 14:25:30;;;;;;;0.65;0.30;;;;;;;18.86;53.41;101463.88;5032362;28;20037;-67
2021/09/30 14:27:56;;;;;;;0.65;0.40;;;;;;;18.93;53.80;101466.59;5091539;22;20030;-64
2021/09/30 14:30:22;;;;;;;1.38;0.32;;;;;;;18.97;53.25;101474.81;5045714;28;20044;-64